createdAt,value
2018-05-03T00:01:00.212Z,99782.30
2018-05-03T00:03:27.619Z,99782.02
2018-05-03T00:05:55.037Z,99782.14
2018-05-03T00:08:22.415Z,99780.59
2018-05-03T00:10:49.971Z,99787.31
2018-05-03T00:13:17.558Z,99788.83
2018-05-03T00:15:44.955Z,99791.00
2018-05-03T00:18:12.380Z,99794.08
2018-05-03T00:20:39.770Z,99788.09
2018-05-03T00:23:07.145Z,99796.17
2018-05-03T00:25:34.551Z,99803.05
2018-05-03T00:28:02.007Z,99795.78
2018-05-03T00:30:29.395Z,99796.63
2018-05-03T00:32:56.774Z,99795.36
2018-05-03T00:35:24.212Z,99792.24
2018-05-03T00:37:51.583Z,99795.48
2018-05-03T00:40:18.969Z,99794.75
2018-05-03T00:42:46.347Z,99797.83
2018-05-03T00:45:14.161Z,99793.69
2018-05-03T00:47:41.519Z,99801.94
2018-05-03T00:50:08.930Z,99794.12
2018-05-03T00:52:36.319Z,99789.67
2018-05-03T00:55:03.734Z,99786.81
2018-05-03T00:57:31.103Z,99791.69
2018-05-03T00:59:58.552Z,99795.36
2018-05-03T01:02:25.935Z,99795.83
2018-05-03T01:04:53.386Z,99795.21
2018-05-03T01:07:20.995Z,99800.86
2018-05-03T01:09:48.390Z,99806.02
2018-05-03T01:12:15.768Z,99810.03
2018-05-03T01:14:43.142Z,99804.22
2018-05-03T01:17:10.579Z,99803.27
2018-05-03T01:19:38.008Z,99807.16
2018-05-03T01:22:05.408Z,99811.30
2018-05-03T01:24:32.770Z,99817.89
2018-05-03T01:27:00.215Z,99814.04
2018-05-03T01:29:27.607Z,99823.14
2018-05-03T01:31:55.134Z,99816.22
2018-05-03T01:34:22.509Z,99819.23
2018-05-03T01:36:50.038Z,99823.19
2018-05-03T01:39:17.451Z,99816.44
2018-05-03T01:41:44.837Z,99824.17
2018-05-03T01:44:12.219Z,99825.30
2018-05-03T01:46:39.606Z,99826.78
2018-05-03T01:49:06.989Z,99833.27
2018-05-03T01:51:34.376Z,99842.16
2018-05-03T01:54:01.746Z,99841.13
2018-05-03T01:56:30.418Z,99845.87
2018-05-03T01:58:57.794Z,99844.64
2018-05-03T02:01:25.186Z,99848.72
2018-05-03T02:03:52.548Z,99847.95
2018-05-03T02:06:19.953Z,99847.38
2018-05-03T02:08:47.334Z,99847.86
2018-05-03T02:11:14.701Z,99845.83
2018-05-03T02:13:42.088Z,99847.72
2018-05-03T02:16:09.473Z,99839.94
2018-05-03T02:18:36.859Z,99841.60
2018-05-03T02:21:04.301Z,99840.52
2018-05-03T02:23:31.662Z,99845.43
2018-05-03T02:25:59.050Z,99837.62
2018-05-03T02:28:26.455Z,99839.45
2018-05-03T02:30:53.819Z,99839.88
2018-05-03T02:33:21.474Z,99836.84
2018-05-03T02:35:48.866Z,99830.73
2018-05-03T02:38:16.309Z,99835.95
2018-05-03T02:40:43.683Z,99835.95
2018-05-03T02:43:11.078Z,99835.81
2018-05-03T02:45:38.580Z,99831.20
2018-05-03T02:48:05.945Z,99822.46
2018-05-03T02:50:33.488Z,99821.09
2018-05-03T02:53:00.874Z,99818.58
2018-05-03T02:55:28.259Z,99808.38
2018-05-03T02:58:13.456Z,99804.88
2018-05-03T03:00:58.302Z,99807.14
2018-05-03T03:03:43.416Z,99808.89
2018-05-03T03:06:28.248Z,99813.20
2018-05-03T03:12:33.560Z,99818.37
2018-05-03T03:15:18.365Z,99819.70
2018-05-03T03:18:03.180Z,99825.34
2018-05-03T03:20:56.723Z,99823.16
2018-05-03T03:29:46.255Z,99821.31
2018-05-03T03:32:25.287Z,99820.45
2018-05-03T03:38:20.907Z,99835.05
2018-05-03T03:41:00.228Z,99848.86
2018-05-03T03:43:39.214Z,99856.43
2018-05-03T03:46:06.640Z,99862.27
2018-05-03T03:48:34.128Z,99866.64
2018-05-03T03:51:01.944Z,99861.13
2018-05-03T03:53:29.395Z,99859.81
2018-05-03T03:55:56.777Z,99857.73
2018-05-03T03:58:24.187Z,99853.54
2018-05-03T04:23:08.088Z,99871.33
2018-05-03T04:25:47.320Z,99873.72
2018-05-03T04:28:16.236Z,99883.02
2018-05-03T04:30:43.710Z,99884.70
2018-05-03T04:33:11.268Z,99879.72
2018-05-03T04:35:39.358Z,99887.31
2018-05-03T04:59:01.533Z,99921.55
2018-05-03T05:01:28.934Z,99924.10
2018-05-03T05:03:56.312Z,99930.66
2018-05-03T05:06:23.713Z,99931.78
2018-05-03T05:08:51.111Z,99924.58
2018-05-03T05:11:18.492Z,99929.47
2018-05-03T05:18:55.115Z,99931.56
2018-05-03T05:21:22.524Z,99926.66
2018-05-03T05:23:49.952Z,99936.81
2018-05-03T05:26:17.335Z,99933.37
2018-05-03T05:28:44.746Z,99946.03
2018-05-03T05:31:12.260Z,99948.67
2018-05-03T05:33:39.647Z,99940.18
2018-05-03T05:36:07.046Z,99945.74
2018-05-03T05:38:35.361Z,99946.36
2018-05-03T05:41:04.001Z,99952.23
2018-05-03T05:43:32.826Z,99960.44
2018-05-03T05:58:50.537Z,99988.84
2018-05-03T06:01:17.942Z,99993.09
2018-05-03T06:03:45.420Z,99994.90
2018-05-03T06:19:04.339Z,100003.50
2018-05-03T06:21:31.732Z,100006.07
2018-05-03T06:23:59.149Z,100009.55
2018-05-03T06:26:27.506Z,100019.98
2018-05-03T06:28:54.879Z,100022.68
2018-05-03T06:31:22.355Z,100025.92
2018-05-03T06:33:49.648Z,100034.17
2018-05-03T06:36:17.039Z,100034.70
2018-05-03T06:38:44.488Z,100038.27
2018-05-03T06:48:47.415Z,100057.61
2018-05-03T06:51:14.808Z,100064.89
2018-05-03T06:53:42.211Z,100058.48
2018-05-03T06:56:09.644Z,100058.78
2018-05-03T06:58:37.047Z,100062.20
2018-05-03T07:01:04.422Z,100068.62
2018-05-03T07:03:31.817Z,100072.41
2018-05-03T07:05:59.203Z,100079.39
2018-05-03T07:08:26.598Z,100080.67
2018-05-03T07:10:53.999Z,100079.73
2018-05-03T07:13:21.387Z,100075.45
2018-05-03T07:15:48.784Z,100082.84
2018-05-03T07:18:16.174Z,100090.65
2018-05-03T07:20:47.460Z,100090.81
2018-05-03T07:23:18.220Z,100086.52
2018-05-03T07:25:45.709Z,100087.61
2018-05-03T07:28:13.140Z,100092.31
2018-05-03T07:30:40.577Z,100091.94
2018-05-03T07:33:08.698Z,100090.59
2018-05-03T07:35:36.116Z,100091.30
2018-05-03T07:38:03.507Z,100096.08
2018-05-03T07:40:30.928Z,100098.72
2018-05-03T07:42:58.367Z,100100.58
2018-05-03T07:45:25.789Z,100101.56
2018-05-03T07:47:53.204Z,100103.95
2018-05-03T07:50:20.597Z,100106.55
2018-05-03T07:52:47.984Z,100110.26
2018-05-03T07:55:15.398Z,100098.63
2018-05-03T07:57:42.802Z,100105.22
2018-05-03T08:00:10.209Z,100105.17
2018-05-03T08:02:37.682Z,100105.22
2018-05-03T08:05:05.101Z,100105.86
2018-05-03T08:07:33.194Z,100109.71
2018-05-03T08:10:00.614Z,100116.43
2018-05-03T08:12:28.104Z,100121.86
2018-05-03T08:14:55.550Z,100123.31
2018-05-03T08:17:22.994Z,100123.72
2018-05-03T08:19:50.366Z,100125.54
2018-05-03T08:22:17.750Z,100121.59
2018-05-03T08:24:45.158Z,100123.61
2018-05-03T08:27:12.602Z,100123.13
2018-05-03T08:29:39.987Z,100123.31
2018-05-03T08:32:07.387Z,100122.84
2018-05-03T08:34:34.792Z,100126.47
2018-05-03T08:37:02.179Z,100122.83
2018-05-03T08:39:29.579Z,100121.33
2018-05-03T08:41:57.108Z,100116.40
2018-05-03T08:44:24.497Z,100120.61
2018-05-03T08:46:51.890Z,100135.26
2018-05-03T08:49:19.340Z,100132.41
2018-05-03T08:51:46.753Z,100134.98
2018-05-03T08:54:14.131Z,100130.05
2018-05-03T08:56:41.513Z,100143.09
2018-05-03T08:59:08.975Z,100148.52
2018-05-03T09:01:36.616Z,100149.87
2018-05-03T09:04:04.008Z,100150.98
2018-05-03T09:06:31.395Z,100150.16
2018-05-03T09:08:58.843Z,100158.11
2018-05-03T09:11:26.225Z,100159.83
2018-05-03T09:13:53.658Z,100154.84
2018-05-03T09:16:21.061Z,100145.23
2018-05-03T09:18:48.431Z,100148.52
2018-05-03T09:21:15.834Z,100141.99
2018-05-03T09:23:43.226Z,100141.50
2018-05-03T09:26:16.643Z,100145.80
2018-05-03T09:28:49.290Z,100143.71
2018-05-03T09:31:24.832Z,100139.69
2018-05-03T09:33:55.921Z,100141.20
2018-05-03T09:36:23.489Z,100146.79
2018-05-03T09:38:50.882Z,100148.13
2018-05-03T09:41:18.568Z,100145.23
2018-05-03T09:43:45.952Z,100147.07
2018-05-03T09:46:13.350Z,100150.88
2018-05-03T09:48:40.730Z,100153.64
2018-05-03T09:51:08.132Z,100154.84
2018-05-03T09:53:35.519Z,100151.91
2018-05-03T09:56:02.911Z,100157.23
2018-05-03T09:58:30.307Z,100158.05
2018-05-03T10:00:57.788Z,100164.64
2018-05-03T10:03:25.187Z,100159.88
2018-05-03T10:05:52.614Z,100155.20
2018-05-03T10:08:19.992Z,100156.03
2018-05-03T10:10:47.444Z,100155.22
2018-05-03T10:13:14.852Z,100150.89
2018-05-03T10:15:42.255Z,100153.42
2018-05-03T10:18:09.632Z,100154.46
2018-05-03T10:20:37.031Z,100162.25
2018-05-03T10:23:04.416Z,100164.02
2018-05-03T10:25:31.820Z,100160.26
2018-05-03T10:27:59.227Z,100165.92
2018-05-03T10:30:26.616Z,100165.47
2018-05-03T10:32:54.007Z,100160.04
2018-05-03T10:35:21.404Z,100168.11
2018-05-03T10:37:48.807Z,100172.75
2018-05-03T10:40:16.174Z,100165.05
2018-05-03T10:42:43.580Z,100164.56
2018-05-03T10:45:10.948Z,100166.80
2018-05-03T10:47:38.339Z,100162.13
2018-05-03T10:50:05.752Z,100156.47
2018-05-03T10:52:33.127Z,100166.25
2018-05-03T10:55:00.521Z,100165.55
2018-05-03T10:57:27.944Z,100168.22
2018-05-03T10:59:55.291Z,100161.41
2018-05-03T11:02:22.693Z,100157.82
2018-05-03T11:04:50.115Z,100162.34
2018-05-03T11:07:17.518Z,100165.42
2018-05-03T11:09:45.021Z,100156.55
2018-05-03T11:12:12.432Z,100153.38
2018-05-03T11:14:39.831Z,100148.16
2018-05-03T11:17:07.263Z,100137.22
2018-05-03T11:19:34.637Z,100135.95
2018-05-03T11:22:02.008Z,100137.27
2018-05-03T11:24:29.420Z,100136.83
2018-05-03T11:26:56.979Z,100130.81
2018-05-03T11:29:24.451Z,100132.95
2018-05-03T11:31:51.836Z,100130.35
2018-05-03T11:34:19.273Z,100123.45
2018-05-03T11:36:46.719Z,100121.16
2018-05-03T11:39:14.105Z,100128.03
2018-05-03T11:41:41.507Z,100137.04
2018-05-03T11:44:08.887Z,100128.23
2018-05-03T11:46:36.298Z,100130.55
2018-05-03T11:49:03.782Z,100120.83
2018-05-03T11:51:31.191Z,100115.28
2018-05-03T11:53:58.572Z,100110.95
2018-05-03T11:56:25.989Z,100112.49
2018-05-03T11:58:53.762Z,100103.39
2018-05-03T12:01:21.439Z,100100.79
2018-05-03T12:03:49.079Z,100104.27
2018-05-03T12:06:16.972Z,100098.16
2018-05-03T12:08:44.367Z,100093.97
2018-05-03T12:11:11.751Z,100100.45
2018-05-03T12:13:39.529Z,100089.47
2018-05-03T12:16:08.026Z,100086.86
2018-05-03T12:18:35.695Z,100090.80
2018-05-03T12:21:04.145Z,100086.31
2018-05-03T12:23:31.693Z,100090.86
2018-05-03T12:25:59.151Z,100094.99
2018-05-03T12:28:26.712Z,100098.25
2018-05-03T12:30:54.132Z,100099.50
2018-05-03T12:33:21.624Z,100086.86
2018-05-03T12:35:49.037Z,100083.69
2018-05-03T12:38:16.633Z,100084.61
2018-05-03T12:40:44.016Z,100082.55
2018-05-03T12:43:11.448Z,100071.16
2018-05-03T12:45:39.109Z,100074.71
2018-05-03T12:48:06.608Z,100078.19
2018-05-03T12:50:34.017Z,100089.26
2018-05-03T12:53:01.434Z,100079.23
2018-05-03T12:55:28.808Z,100081.03
2018-05-03T12:57:56.205Z,100074.43
2018-05-03T13:00:23.619Z,100069.82
2018-05-03T13:02:51.023Z,100082.89
2018-05-03T13:05:18.457Z,100079.78
2018-05-03T13:07:46.020Z,100091.95
2018-05-03T13:10:13.345Z,100078.30
2018-05-03T13:12:41.750Z,100074.69
2018-05-03T13:15:09.269Z,100071.10
2018-05-03T13:17:36.660Z,100063.99
2018-05-03T13:20:04.090Z,100070.23
2018-05-03T13:22:31.594Z,100073.36
2018-05-03T13:24:59.067Z,100067.66
2018-05-03T13:27:26.482Z,100069.52
2018-05-03T13:29:53.884Z,100069.23
2018-05-03T13:32:21.285Z,100069.30
2018-05-03T13:34:48.679Z,100076.11
2018-05-03T13:37:16.070Z,100079.06
2018-05-03T13:39:43.474Z,100076.27
2018-05-03T13:42:10.935Z,100073.70
2018-05-03T13:44:38.542Z,100062.12
2018-05-03T13:47:05.992Z,100051.95
2018-05-03T13:49:33.403Z,100052.29
2018-05-03T13:52:01.590Z,100050.66
2018-05-03T13:54:28.980Z,100053.70
2018-05-03T13:56:56.471Z,100056.05
2018-05-03T13:59:23.841Z,100057.31
2018-05-03T14:01:51.221Z,100046.34
2018-05-03T14:04:18.724Z,100045.64
2018-05-03T14:06:46.143Z,100046.87
2018-05-03T14:09:13.609Z,100048.03
2018-05-03T14:11:41.047Z,100050.80
2018-05-03T14:14:08.468Z,100058.45
2018-05-03T14:16:35.895Z,100066.95
2018-05-03T14:19:03.292Z,100067.20
2018-05-03T14:21:30.775Z,100059.74
2018-05-03T14:23:58.151Z,100061.81
2018-05-03T14:26:25.562Z,100055.02
2018-05-03T14:28:52.956Z,100053.27
2018-05-03T14:31:20.829Z,100050.95
2018-05-03T14:33:48.605Z,100043.92
2018-05-03T14:36:16.017Z,100048.00
2018-05-03T14:38:43.515Z,100054.55
2018-05-03T14:41:10.955Z,100055.68
2018-05-03T14:43:39.903Z,100054.27
2018-05-03T14:46:07.355Z,100070.39
2018-05-03T14:48:34.772Z,100070.23
2018-05-03T14:51:02.176Z,100069.91
2018-05-03T14:53:29.562Z,100063.51
2018-05-03T14:55:56.946Z,100069.92
2018-05-03T14:58:25.378Z,100061.70
2018-05-03T15:00:52.871Z,100062.94
2018-05-03T15:03:20.251Z,100081.19
2018-05-03T15:05:47.635Z,100082.66
2018-05-03T15:08:15.135Z,100067.36
2018-05-03T15:10:42.552Z,100064.11
2018-05-03T15:13:09.938Z,100064.16
2018-05-03T15:15:37.315Z,100062.80
2018-05-03T15:18:04.962Z,100063.55
2018-05-03T15:20:32.334Z,100070.16
2018-05-03T15:22:59.720Z,100072.77
2018-05-03T15:25:27.627Z,100083.64
2018-05-03T15:27:57.351Z,100074.34
2018-05-03T15:30:24.814Z,100071.86
2018-05-03T15:32:52.226Z,100077.73
2018-05-03T15:35:19.649Z,100070.87
2018-05-03T15:37:47.054Z,100068.12
2018-05-03T15:40:14.483Z,100075.56
2018-05-03T15:42:41.982Z,100077.12
2018-05-03T15:45:09.372Z,100075.14
2018-05-03T15:47:37.659Z,100080.75
2018-05-03T15:50:05.139Z,100073.92
2018-05-03T15:52:32.484Z,100075.59
2018-05-03T15:54:59.872Z,100084.66
2018-05-03T15:57:27.380Z,100084.50
2018-05-03T15:59:54.831Z,100083.44
2018-05-03T16:02:22.213Z,100086.17
2018-05-03T16:04:49.603Z,100087.84
2018-05-03T16:07:17.100Z,100078.45
2018-05-03T16:09:44.519Z,100080.91
2018-05-03T16:12:11.948Z,100080.63
2018-05-03T16:14:39.411Z,100086.27
2018-05-03T16:17:06.903Z,100087.60
2018-05-03T16:19:34.301Z,100088.60
2018-05-03T16:22:01.702Z,100087.13
2018-05-03T16:24:29.127Z,100087.70
2018-05-03T16:26:56.549Z,100093.27
2018-05-03T16:29:23.938Z,100098.50
2018-05-03T16:31:51.326Z,100100.20
2018-05-03T16:34:18.760Z,100108.05
2018-05-03T16:36:46.156Z,100109.05
2018-05-03T16:39:13.616Z,100116.64
2018-05-03T16:41:41.048Z,100114.34
2018-05-03T16:44:08.427Z,100110.63
2018-05-03T16:46:35.818Z,100106.66
2018-05-03T16:49:03.216Z,100115.98
2018-05-03T16:51:30.597Z,100129.09
2018-05-03T16:53:58.015Z,100120.27
2018-05-03T16:56:25.416Z,100119.35
2018-05-03T16:58:52.838Z,100122.02
2018-05-03T17:01:20.347Z,100121.95
2018-05-03T17:03:47.796Z,100124.78
2018-05-03T17:06:15.179Z,100118.72
2018-05-03T17:08:42.700Z,100120.77
2018-05-03T17:11:10.139Z,100124.95
2018-05-03T17:13:37.612Z,100129.21
2018-05-03T17:16:05.034Z,100127.69
2018-05-03T17:18:32.453Z,100134.06
2018-05-03T17:20:59.841Z,100133.39
2018-05-03T17:23:28.493Z,100138.39
2018-05-03T17:25:55.864Z,100140.26
2018-05-03T17:28:23.356Z,100142.44
2018-05-03T17:30:50.747Z,100145.98
2018-05-03T17:33:18.138Z,100147.72
2018-05-03T17:35:45.525Z,100153.45
2018-05-03T17:38:12.899Z,100152.72
2018-05-03T17:40:40.323Z,100148.25
2018-05-03T17:43:07.865Z,100152.70
2018-05-03T17:45:35.230Z,100156.09
2018-05-03T17:48:02.612Z,100159.16
2018-05-03T17:50:30.015Z,100163.16
2018-05-03T17:52:57.388Z,100168.38
2018-05-03T17:55:24.903Z,100172.24
2018-05-03T17:57:59.931Z,100168.80
2018-05-03T18:00:32.537Z,100177.88
2018-05-03T18:03:00.114Z,100183.96
2018-05-03T18:05:27.559Z,100186.13
2018-05-03T18:07:54.960Z,100190.44
2018-05-03T18:10:22.425Z,100195.66
2018-05-03T18:12:49.919Z,100195.64
2018-05-03T18:15:17.522Z,100204.27
2018-05-03T18:17:44.903Z,100202.13
2018-05-03T18:20:12.559Z,100203.83
2018-05-03T18:22:39.939Z,100209.87
2018-05-03T18:25:07.348Z,100216.34
2018-05-03T18:27:34.720Z,100214.59
2018-05-03T18:30:02.120Z,100217.58
2018-05-03T18:32:29.499Z,100219.22
2018-05-03T18:34:56.890Z,100221.85
2018-05-03T18:37:24.346Z,100226.61
2018-05-03T18:39:51.745Z,100230.10
2018-05-03T18:42:19.407Z,100228.80
2018-05-03T18:44:46.827Z,100240.84
2018-05-03T18:47:14.352Z,100238.23
2018-05-03T18:49:41.810Z,100235.10
2018-05-03T18:52:09.796Z,100239.47
2018-05-03T18:54:37.238Z,100246.21
2018-05-03T18:57:04.846Z,100249.66
2018-05-03T18:59:32.288Z,100253.13
2018-05-03T19:01:59.714Z,100255.27
2018-05-03T19:04:27.102Z,100265.55
2018-05-03T19:06:54.485Z,100270.31
2018-05-03T19:09:21.880Z,100269.52
2018-05-03T19:11:49.307Z,100274.13
2018-05-03T19:14:16.653Z,100279.83
2018-05-03T19:16:44.064Z,100284.48
2018-05-03T19:19:11.444Z,100287.00
2018-05-03T19:21:38.846Z,100292.99
2018-05-03T19:24:06.227Z,100285.33
2018-05-03T19:26:33.649Z,100295.92
2018-05-03T19:29:01.054Z,100305.25
2018-05-03T19:31:28.549Z,100305.64
2018-05-03T19:33:55.968Z,100308.24
2018-05-03T19:36:23.410Z,100311.63
2018-05-03T19:38:50.828Z,100312.16
2018-05-03T19:41:18.223Z,100318.17
2018-05-03T19:43:45.640Z,100324.08
2018-05-03T19:46:13.133Z,100321.08
2018-05-03T19:48:42.151Z,100327.41
2018-05-03T19:51:09.543Z,100328.66
2018-05-03T19:53:36.934Z,100331.41
2018-05-03T19:56:04.332Z,100335.53
2018-05-03T19:58:31.747Z,100339.58
2018-05-03T20:00:59.152Z,100344.22
2018-05-03T20:03:26.555Z,100353.09
2018-05-03T20:05:53.974Z,100354.45
2018-05-03T20:08:21.402Z,100360.45
2018-05-03T20:10:48.789Z,100359.45
2018-05-03T20:13:16.272Z,100366.14
2018-05-03T20:15:43.669Z,100367.59
2018-05-03T20:18:11.319Z,100368.09
2018-05-03T20:20:38.742Z,100376.11
2018-05-03T20:23:06.188Z,100376.30
2018-05-03T20:25:33.670Z,100377.63
2018-05-03T20:28:01.076Z,100387.37
2018-05-03T20:30:28.555Z,100387.66
2018-05-03T20:32:55.946Z,100392.09
2018-05-03T20:35:23.344Z,100396.55
2018-05-03T20:37:50.779Z,100397.12
2018-05-03T20:40:18.186Z,100398.63
2018-05-03T20:42:45.570Z,100388.91
2018-05-03T20:45:12.947Z,100394.92
2018-05-03T20:47:40.350Z,100394.42
2018-05-03T20:50:07.741Z,100391.02
2018-05-03T20:52:35.337Z,100395.91
2018-05-03T20:55:02.825Z,100392.27
2018-05-03T20:57:30.231Z,100396.97
2018-05-03T20:59:57.838Z,100402.94
2018-05-03T21:02:25.235Z,100407.73
2018-05-03T21:04:52.658Z,100411.50
2018-05-03T21:07:20.244Z,100408.00
2018-05-03T21:09:47.644Z,100409.04
2018-05-03T21:12:15.028Z,100411.92
2018-05-03T21:14:42.411Z,100409.31
2018-05-03T21:17:10.802Z,100413.19
2018-05-03T21:19:38.205Z,100408.18
2018-05-03T21:22:05.692Z,100399.77
2018-05-03T21:24:33.131Z,100405.17
2018-05-03T21:27:00.537Z,100400.55
2018-05-03T21:42:22.958Z,100411.35
2018-05-03T21:44:50.508Z,100410.70
2018-05-03T21:47:17.923Z,100413.18
2018-05-03T21:49:45.307Z,100408.51
2018-05-03T21:52:13.273Z,100410.97
2018-05-03T21:54:40.962Z,100412.77
2018-05-03T21:57:08.356Z,100418.88
2018-05-03T21:59:35.797Z,100422.94
2018-05-03T22:02:03.196Z,100413.45
2018-05-03T22:04:30.617Z,100416.16
2018-05-03T22:06:58.136Z,100416.17
2018-05-03T22:09:26.750Z,100414.45
2018-05-03T22:11:54.170Z,100416.03
2018-05-03T22:14:21.558Z,100421.62
2018-05-03T22:16:49.221Z,100422.82
2018-05-03T22:19:16.747Z,100418.79
2018-05-03T22:21:44.347Z,100413.30
2018-05-03T22:24:11.768Z,100418.66
2018-05-03T22:26:39.457Z,100417.03
2018-05-03T22:29:06.929Z,100413.00
2018-05-03T22:31:34.450Z,100423.33
2018-05-03T22:34:01.868Z,100423.28
2018-05-03T22:36:29.251Z,100422.05
2018-05-03T22:38:56.632Z,100414.70
2018-05-03T22:41:24.099Z,100420.67
2018-05-03T22:43:51.499Z,100425.69
2018-05-03T22:46:18.936Z,100431.25
2018-05-03T22:48:46.333Z,100438.73
2018-05-03T22:51:13.710Z,100431.81
2018-05-03T22:53:41.172Z,100429.64
2018-05-03T22:56:08.543Z,100425.64
2018-05-03T22:58:35.935Z,100423.98
2018-05-03T23:01:03.325Z,100419.95
2018-05-03T23:03:30.727Z,100416.70
2018-05-03T23:05:58.138Z,100415.55
2018-05-03T23:08:25.528Z,100418.31
2018-05-03T23:10:52.917Z,100424.95
2018-05-03T23:13:20.442Z,100424.08
2018-05-03T23:15:47.925Z,100423.84
2018-05-03T23:18:15.313Z,100420.80
2018-05-03T23:20:42.789Z,100422.61
2018-05-03T23:23:10.397Z,100420.37
2018-05-03T23:25:37.839Z,100419.15
2018-05-03T23:28:05.248Z,100421.56
2018-05-03T23:30:32.620Z,100418.14
2018-05-03T23:33:00.056Z,100419.28
2018-05-03T23:35:27.440Z,100427.37
2018-05-03T23:37:54.812Z,100431.14
2018-05-03T23:40:22.186Z,100436.85
2018-05-03T23:42:49.579Z,100439.61
2018-05-03T23:45:16.964Z,100441.00
2018-05-03T23:47:44.350Z,100444.83
2018-05-03T23:50:11.813Z,100444.20
2018-05-03T23:52:39.414Z,100443.97
2018-05-03T23:55:06.800Z,100447.89
2018-05-03T23:57:34.191Z,100446.87
